sensor_id;sensor_type;location;lat;lon;timestamp;pressure;altitude;pressure_sealevel;temperature;humidity
34742;BME280;20968;42.696;23.360;2022-09-14T00:01:14;95190.50;;;17.32;57.16
34742;BME280;20968;42.696;23.360;2022-09-14T00:03:41;95196.06;;;17.32;56.96
34742;BME280;20968;42.696;23.360;2022-09-14T00:06:12;95171.56;;;17.25;57.31
34742;BME280;20968;42.696;23.360;2022-09-14T00:08:38;95189.22;;;17.33;57.39
34742;BME280;20968;42.696;23.360;2022-09-14T00:11:12;95186.41;;;17.38;57.51
34742;BME280;20968;42.696;23.360;2022-09-14T00:13:41;95181.66;;;17.33;57.59
34742;BME280;20968;42.696;23.360;2022-09-14T00:16:11;95185.06;;;17.45;56.32
34742;BME280;20968;42.696;23.360;2022-09-14T00:18:37;95176.94;;;17.23;56.57
34742;BME280;20968;42.696;23.360;2022-09-14T00:21:04;95189.84;;;17.20;57.22
34742;BME280;20968;42.696;23.360;2022-09-14T00:23:31;95173.22;;;17.15;57.16
34742;BME280;20968;42.696;23.360;2022-09-14T00:26:23;95192.25;;;17.06;57.79
34742;BME280;20968;42.696;23.360;2022-09-14T00:28:54;95183.41;;;17.07;57.70
34742;BME280;20968;42.696;23.360;2022-09-14T00:31:21;95183.63;;;17.09;58.51
34742;BME280;20968;42.696;23.360;2022-09-14T00:33:47;95177.94;;;16.96;59.06
34742;BME280;20968;42.696;23.360;2022-09-14T00:36:16;95172.84;;;16.71;59.00
34742;BME280;20968;42.696;23.360;2022-09-14T00:38:44;95176.88;;;16.70;59.36
34742;BME280;20968;42.696;23.360;2022-09-14T00:41:14;95178.31;;;16.82;59.01
34742;BME280;20968;42.696;23.360;2022-09-14T00:46:37;95187.09;;;16.91;59.73
34742;BME280;20968;42.696;23.360;2022-09-14T00:49:06;95201.69;;;16.97;59.94
34742;BME280;20968;42.696;23.360;2022-09-14T00:51:33;95200.38;;;16.74;59.50
34742;BME280;20968;42.696;23.360;2022-09-14T00:54:01;95205.94;;;16.74;59.96
34742;BME280;20968;42.696;23.360;2022-09-14T00:56:27;95186.59;;;16.58;59.34
34742;BME280;20968;42.696;23.360;2022-09-14T00:58:54;95183.66;;;16.45;59.78
34742;BME280;20968;42.696;23.360;2022-09-14T01:01:23;95202.50;;;16.57;60.03
34742;BME280;20968;42.696;23.360;2022-09-14T01:03:49;95189.16;;;16.50;59.65
34742;BME280;20968;42.696;23.360;2022-09-14T01:07:09;95204.03;;;16.58;59.82
34742;BME280;20968;42.696;23.360;2022-09-14T01:20:28;95189.47;;;16.41;59.43
34742;BME280;20968;42.696;23.360;2022-09-14T01:31:58;95190.56;;;16.28;60.00
34742;BME280;20968;42.696;23.360;2022-09-14T01:37:18;95185.09;;;16.17;59.66
34742;BME280;20968;42.696;23.360;2022-09-14T01:47:38;95201.50;;;16.15;60.48
34742;BME280;20968;42.696;23.360;2022-09-14T01:50:09;95203.84;;;16.05;60.41
34742;BME280;20968;42.696;23.360;2022-09-14T01:52:42;95206.88;;;16.02;59.92
34742;BME280;20968;42.696;23.360;2022-09-14T02:00:09;95202.13;;;15.91;60.21
34742;BME280;20968;42.696;23.360;2022-09-14T02:02:43;95200.09;;;15.97;60.46
34742;BME280;20968;42.696;23.360;2022-09-14T02:05:32;95186.69;;;15.96;60.98
34742;BME280;20968;42.696;23.360;2022-09-14T02:08:04;95199.81;;;16.01;60.96
34742;BME280;20968;42.696;23.360;2022-09-14T02:10:30;95184.44;;;15.94;60.80
34742;BME280;20968;42.696;23.360;2022-09-14T02:12:56;95199.53;;;16.04;61.12
34742;BME280;20968;42.696;23.360;2022-09-14T02:15:22;95187.72;;;15.98;60.78
34742;BME280;20968;42.696;23.360;2022-09-14T02:17:51;95208.38;;;16.03;61.07
34742;BME280;20968;42.696;23.360;2022-09-14T02:20:27;95199.81;;;16.01;61.08
34742;BME280;20968;42.696;23.360;2022-09-14T02:22:55;95204.84;;;16.02;61.33
34742;BME280;20968;42.696;23.360;2022-09-14T02:25:21;95195.03;;;15.96;61.42
34742;BME280;20968;42.696;23.360;2022-09-14T02:27:47;95187.94;;;16.00;61.27
34742;BME280;20968;42.696;23.360;2022-09-14T02:30:15;95183.19;;;15.90;61.64
34742;BME280;20968;42.696;23.360;2022-09-14T02:33:04;95199.06;;;15.95;61.27
34742;BME280;20968;42.696;23.360;2022-09-14T02:35:41;95196.34;;;15.89;61.50
34742;BME280;20968;42.696;23.360;2022-09-14T02:44:33;95212.50;;;15.85;61.24
34742;BME280;20968;42.696;23.360;2022-09-14T02:47:15;95209.50;;;15.78;61.44
34742;BME280;20968;42.696;23.360;2022-09-14T02:55:32;95216.59;;;15.79;61.09
34742;BME280;20968;42.696;23.360;2022-09-14T02:58:06;95202.97;;;15.70;61.74
34742;BME280;20968;42.696;23.360;2022-09-14T03:00:39;95197.25;;;15.52;61.63
34742;BME280;20968;42.696;23.360;2022-09-14T03:03:06;95209.78;;;15.69;61.53
34742;BME280;20968;42.696;23.360;2022-09-14T03:05:32;95202.72;;;15.68;61.52
34742;BME280;20968;42.696;23.360;2022-09-14T03:08:00;95213.06;;;15.73;61.93
34742;BME280;20968;42.696;23.360;2022-09-14T03:10:26;95212.56;;;15.69;61.76
34742;BME280;20968;42.696;23.360;2022-09-14T03:12:52;95212.56;;;15.69;61.48
34742;BME280;20968;42.696;23.360;2022-09-14T03:15:18;95210.81;;;15.66;61.85
34742;BME280;20968;42.696;23.360;2022-09-14T03:17:45;95211.06;;;15.68;61.38
34742;BME280;20968;42.696;23.360;2022-09-14T03:20:12;95202.25;;;15.64;60.87
34742;BME280;20968;42.696;23.360;2022-09-14T03:25:06;95207.03;;;15.69;61.49
34742;BME280;20968;42.696;23.360;2022-09-14T03:27:37;95192.94;;;15.56;61.62
34742;BME280;20968;42.696;23.360;2022-09-14T03:30:13;95201.47;;;15.63;61.76
34742;BME280;20968;42.696;23.360;2022-09-14T03:32:40;95203.25;;;15.66;61.63
34742;BME280;20968;42.696;23.360;2022-09-14T03:35:06;95206.78;;;15.61;61.84
34742;BME280;20968;42.696;23.360;2022-09-14T03:37:36;95210.81;;;15.60;61.90
34742;BME280;20968;42.696;23.360;2022-09-14T03:40:03;95207.31;;;15.60;61.25
34742;BME280;20968;42.696;23.360;2022-09-14T03:42:28;95196.72;;;15.53;61.64
34742;BME280;20968;42.696;23.360;2022-09-14T03:44:55;95207.53;;;15.67;61.57
34742;BME280;20968;42.696;23.360;2022-09-14T03:47:21;95196.22;;;15.55;61.45
34742;BME280;20968;42.696;23.360;2022-09-14T03:49:46;95209.09;;;15.52;61.80
34742;BME280;20968;42.696;23.360;2022-09-14T03:52:12;95210.13;;;15.44;61.65
34742;BME280;20968;42.696;23.360;2022-09-14T03:54:37;95217.69;;;15.38;61.77
34742;BME280;20968;42.696;23.360;2022-09-14T03:57:03;95218.47;;;15.44;61.93
34742;BME280;20968;42.696;23.360;2022-09-14T03:59:28;95217.22;;;15.39;62.19
34742;BME280;20968;42.696;23.360;2022-09-14T04:01:54;95211.16;;;15.35;62.28
34742;BME280;20968;42.696;23.360;2022-09-14T04:04:19;95216.47;;;15.28;61.71
34742;BME280;20968;42.696;23.360;2022-09-14T04:06:45;95222.03;;;15.28;61.66
34742;BME280;20968;42.696;23.360;2022-09-14T04:09:14;95226.06;;;15.32;62.17
34742;BME280;20968;42.696;23.360;2022-09-14T04:11:44;95208.13;;;15.17;61.95
34742;BME280;20968;42.696;23.360;2022-09-14T04:14:10;95197.03;;;15.22;61.81
34742;BME280;20968;42.696;23.360;2022-09-14T04:16:37;95210.16;;;15.22;62.65
34742;BME280;20968;42.696;23.360;2022-09-14T04:19:02;95214.69;;;15.19;62.08
34742;BME280;20968;42.696;23.360;2022-09-14T04:21:28;95209.91;;;15.20;62.14
34742;BME280;20968;42.696;23.360;2022-09-14T04:23:56;95216.75;;;15.24;62.17
34742;BME280;20968;42.696;23.360;2022-09-14T04:26:29;95201.84;;;15.16;62.46
34742;BME280;20968;42.696;23.360;2022-09-14T04:28:55;95218.47;;;15.22;62.23
34742;BME280;20968;42.696;23.360;2022-09-14T04:31:41;95209.38;;;15.21;62.30
34742;BME280;20968;42.696;23.360;2022-09-14T04:34:11;95221.25;;;15.27;62.49
34742;BME280;20968;42.696;23.360;2022-09-14T04:36:41;95219.50;;;15.30;62.26
34742;BME280;20968;42.696;23.360;2022-09-14T04:39:10;95216.47;;;15.33;62.31
34742;BME280;20968;42.696;23.360;2022-09-14T04:41:36;95210.16;;;15.16;61.71
34742;BME280;20968;42.696;23.360;2022-09-14T04:44:04;95239.41;;;15.34;62.16
34742;BME280;20968;42.696;23.360;2022-09-14T04:46:33;95232.34;;;15.38;61.77
34742;BME280;20968;42.696;23.360;2022-09-14T04:49:00;95235.06;;;15.49;62.40
34742;BME280;20968;42.696;23.360;2022-09-14T04:51:36;95214.66;;;15.47;61.26
34742;BME280;20968;42.696;23.360;2022-09-14T04:54:16;95225.22;;;15.54;61.61
34742;BME280;20968;42.696;23.360;2022-09-14T04:56:45;95233.00;;;15.66;61.64
34742;BME280;20968;42.696;23.360;2022-09-14T04:59:11;95230.25;;;15.60;61.66
34742;BME280;20968;42.696;23.360;2022-09-14T05:01:47;95245.38;;;15.70;62.02
34742;BME280;20968;42.696;23.360;2022-09-14T05:04:47;95250.97;;;15.59;61.76
34742;BME280;20968;42.696;23.360;2022-09-14T05:10:22;95246.97;;;15.39;61.52
34742;BME280;20968;42.696;23.360;2022-09-14T05:12:48;95252.25;;;15.48;61.12
34742;BME280;20968;42.696;23.360;2022-09-14T05:15:13;95247.94;;;15.52;60.73
34742;BME280;20968;42.696;23.360;2022-09-14T05:23:06;95265.00;;;15.89;61.10
34742;BME280;20968;42.696;23.360;2022-09-14T05:28:41;95258.34;;;16.65;63.06
34742;BME280;20968;42.696;23.360;2022-09-14T05:31:09;95260.94;;;16.92;63.34
34742;BME280;20968;42.696;23.360;2022-09-14T05:33:35;95255.75;;;17.07;60.91
34742;BME280;20968;42.696;23.360;2022-09-14T05:36:03;95253.34;;;17.27;58.85
34742;BME280;20968;42.696;23.360;2022-09-14T05:38:30;95270.19;;;17.64;59.48
34742;BME280;20968;42.696;23.360;2022-09-14T05:40:56;95262.28;;;17.92;57.94
34742;BME280;20968;42.696;23.360;2022-09-14T05:43:23;95256.00;;;18.10;57.20
34742;BME280;20968;42.696;23.360;2022-09-14T05:45:50;95271.88;;;18.39;55.54
34742;BME280;20968;42.696;23.360;2022-09-14T05:48:16;95267.72;;;18.45;54.76
34742;BME280;20968;42.696;23.360;2022-09-14T05:50:45;95265.94;;;18.48;55.17
34742;BME280;20968;42.696;23.360;2022-09-14T05:53:11;95273.41;;;18.58;55.17
34742;BME280;20968;42.696;23.360;2022-09-14T05:55:36;95293.66;;;18.77;54.96
34742;BME280;20968;42.696;23.360;2022-09-14T05:58:05;95296.97;;;18.94;54.00
34742;BME280;20968;42.696;23.360;2022-09-14T06:00:30;95284.97;;;18.80;54.08
34742;BME280;20968;42.696;23.360;2022-09-14T06:02:56;95275.91;;;18.93;53.71
34742;BME280;20968;42.696;23.360;2022-09-14T06:05:22;95275.63;;;18.96;54.30
34742;BME280;20968;42.696;23.360;2022-09-14T06:07:52;95280.16;;;19.18;53.25
34742;BME280;20968;42.696;23.360;2022-09-14T06:10:24;95271.13;;;19.25;53.53
34742;BME280;20968;42.696;23.360;2022-09-14T06:19:49;95280.53;;;19.40;53.11
34742;BME280;20968;42.696;23.360;2022-09-14T06:22:45;95269.25;;;19.46;53.85
34742;BME280;20968;42.696;23.360;2022-09-14T06:25:35;95279.38;;;19.49;53.96
34742;BME280;20968;42.696;23.360;2022-09-14T06:28:08;95279.50;;;19.56;53.69
34742;BME280;20968;42.696;23.360;2022-09-14T06:30:34;95267.78;;;19.57;53.45
34742;BME280;20968;42.696;23.360;2022-09-14T06:33:03;95261.50;;;19.39;52.67
34742;BME280;20968;42.696;23.360;2022-09-14T06:35:38;95275.50;;;19.52;51.60
34742;BME280;20968;42.696;23.360;2022-09-14T06:38:09;95274.34;;;19.60;50.50
34742;BME280;20968;42.696;23.360;2022-09-14T06:40:35;95258.41;;;19.42;51.61
34742;BME280;20968;42.696;23.360;2022-09-14T06:43:06;95278.19;;;19.44;51.15
34742;BME280;20968;42.696;23.360;2022-09-14T06:45:40;95265.59;;;19.38;50.97
34742;BME280;20968;42.696;23.360;2022-09-14T06:48:39;95272.97;;;19.22;51.72
34742;BME280;20968;42.696;23.360;2022-09-14T06:51:18;95259.72;;;19.10;51.02
34742;BME280;20968;42.696;23.360;2022-09-14T06:54:03;95280.56;;;19.22;53.19
34742;BME280;20968;42.696;23.360;2022-09-14T06:56:43;95261.47;;;19.26;52.42
34742;BME280;20968;42.696;23.360;2022-09-14T06:59:14;95271.09;;;19.56;53.06
34742;BME280;20968;42.696;23.360;2022-09-14T07:02:02;95277.28;;;19.80;52.36
34742;BME280;20968;42.696;23.360;2022-09-14T07:04:54;95279.06;;;19.96;52.93
34742;BME280;20968;42.696;23.360;2022-09-14T07:11:03;95281.63;;;20.07;51.71
34742;BME280;20968;42.696;23.360;2022-09-14T07:13:32;95260.00;;;19.95;51.60
34742;BME280;20968;42.696;23.360;2022-09-14T07:16:00;95264.19;;;20.14;50.32
34742;BME280;20968;42.696;23.360;2022-09-14T07:18:33;95265.81;;;20.23;49.57
34742;BME280;20968;42.696;23.360;2022-09-14T07:21:12;95262.44;;;20.50;50.34
34742;BME280;20968;42.696;23.360;2022-09-14T07:23:40;95262.97;;;20.61;50.23
34742;BME280;20968;42.696;23.360;2022-09-14T07:26:59;95257.25;;;20.80;48.27
34742;BME280;20968;42.696;23.360;2022-09-14T07:29:21;95256.66;;;20.22;49.07
34742;BME280;20968;42.696;23.360;2022-09-14T07:31:49;95264.31;;;20.22;50.23
34742;BME280;20968;42.696;23.360;2022-09-14T07:34:16;95268.50;;;20.41;54.48
34742;BME280;20968;42.696;23.360;2022-09-14T07:36:42;95245.84;;;20.65;52.70
34742;BME280;20968;42.696;23.360;2022-09-14T07:39:11;95244.06;;;21.08;52.04
34742;BME280;20968;42.696;23.360;2022-09-14T07:41:37;95257.16;;;21.46;51.00
34742;BME280;20968;42.696;23.360;2022-09-14T07:44:11;95249.50;;;21.67;49.92
34742;BME280;20968;42.696;23.360;2022-09-14T07:46:40;95252.59;;;22.04;48.92
34742;BME280;20968;42.696;23.360;2022-09-14T08:12:09;95267.06;;;22.44;46.24
34742;BME280;20968;42.696;23.360;2022-09-14T08:14:41;95270.66;;;22.59;45.21
34742;BME280;20968;42.696;23.360;2022-09-14T08:17:53;95261.97;;;22.77;47.18
34742;BME280;20968;42.696;23.360;2022-09-14T08:20:18;95250.69;;;22.70;46.58
34742;BME280;20968;42.696;23.360;2022-09-14T08:22:47;95243.09;;;22.85;46.66
34742;BME280;20968;42.696;23.360;2022-09-14T08:27:38;95234.31;;;22.96;43.94
34742;BME280;20968;42.696;23.360;2022-09-14T08:33:08;95257.81;;;23.29;45.25
34742;BME280;20968;42.696;23.360;2022-09-14T08:38:18;95252.75;;;23.27;44.08
34742;BME280;20968;42.696;23.360;2022-09-14T08:47:33;95245.13;;;23.80;43.37
34742;BME280;20968;42.696;23.360;2022-09-14T08:52:41;95240.81;;;23.86;43.81
34742;BME280;20968;42.696;23.360;2022-09-14T08:55:29;95242.47;;;24.12;44.04
34742;BME280;20968;42.696;23.360;2022-09-14T09:04:22;95240.28;;;24.64;42.40
34742;BME280;20968;42.696;23.360;2022-09-14T09:12:03;95230.19;;;24.93;43.31
34742;BME280;20968;42.696;23.360;2022-09-14T09:14:35;95228.34;;;24.88;42.70
34742;BME280;20968;42.696;23.360;2022-09-14T09:17:11;95217.78;;;24.96;41.91
34742;BME280;20968;42.696;23.360;2022-09-14T09:20:03;95219.97;;;25.13;42.41
34742;BME280;20968;42.696;23.360;2022-09-14T09:22:37;95210.53;;;25.17;41.55
34742;BME280;20968;42.696;23.360;2022-09-14T09:25:06;95204.69;;;25.23;41.46
34742;BME280;20968;42.696;23.360;2022-09-14T09:27:36;95216.66;;;25.55;41.04
34742;BME280;20968;42.696;23.360;2022-09-14T09:30:02;95209.19;;;25.75;41.33
34742;BME280;20968;42.696;23.360;2022-09-14T09:32:27;95207.75;;;25.42;40.79
34742;BME280;20968;42.696;23.360;2022-09-14T09:34:52;95207.97;;;25.61;40.78
34742;BME280;20968;42.696;23.360;2022-09-14T09:37:21;95216.06;;;25.89;40.47
34742;BME280;20968;42.696;23.360;2022-09-14T09:39:47;95210.25;;;26.03;40.62
34742;BME280;20968;42.696;23.360;2022-09-14T09:42:23;95208.63;;;26.17;39.72
34742;BME280;20968;42.696;23.360;2022-09-14T09:45:00;95217.16;;;26.27;38.64
34742;BME280;20968;42.696;23.360;2022-09-14T09:47:32;95204.78;;;26.22;39.21
34742;BME280;20968;42.696;23.360;2022-09-14T09:50:16;95212.16;;;26.42;38.78
34742;BME280;20968;42.696;23.360;2022-09-14T09:53:01;95205.91;;;26.44;40.11
34742;BME280;20968;42.696;23.360;2022-09-14T09:58:49;95198.66;;;26.67;38.60
34742;BME280;20968;42.696;23.360;2022-09-14T10:01:31;95192.16;;;26.74;40.07
34742;BME280;20968;42.696;23.360;2022-09-14T10:04:18;95190.34;;;26.95;39.03
34742;BME280;20968;42.696;23.360;2022-09-14T10:07:00;95182.72;;;27.05;38.68
34742;BME280;20968;42.696;23.360;2022-09-14T10:09:32;95182.69;;;27.32;37.79
34742;BME280;20968;42.696;23.360;2022-09-14T10:18:39;95152.31;;;27.68;38.38
34742;BME280;20968;42.696;23.360;2022-09-14T10:21:05;95155.94;;;27.87;38.26
34742;BME280;20968;42.696;23.360;2022-09-14T10:24:17;95161.31;;;27.93;37.65
34742;BME280;20968;42.696;23.360;2022-09-14T10:26:45;95162.97;;;28.05;36.67
34742;BME280;20968;42.696;23.360;2022-09-14T10:29:36;95150.59;;;28.01;37.88
34742;BME280;20968;42.696;23.360;2022-09-14T10:32:27;95163.88;;;27.98;37.22
34742;BME280;20968;42.696;23.360;2022-09-14T10:34:56;95152.69;;;28.19;35.89
34742;BME280;20968;42.696;23.360;2022-09-14T10:37:41;95157.75;;;28.11;36.07
34742;BME280;20968;42.696;23.360;2022-09-14T10:40:37;95144.91;;;27.91;35.13
34742;BME280;20968;42.696;23.360;2022-09-14T10:45:50;95145.72;;;28.30;34.71
34742;BME280;20968;42.696;23.360;2022-09-14T10:54:12;95140.06;;;28.20;35.50
34742;BME280;20968;42.696;23.360;2022-09-14T10:57:19;95135.44;;;28.25;33.82
34742;BME280;20968;42.696;23.360;2022-09-14T11:00:03;95131.25;;;28.35;33.67
34742;BME280;20968;42.696;23.360;2022-09-14T11:05:28;95119.88;;;28.92;34.54
34742;BME280;20968;42.696;23.360;2022-09-14T11:24:29;95121.75;;;29.78;31.49
34742;BME280;20968;42.696;23.360;2022-09-14T11:29:35;95118.72;;;29.86;30.97
34742;BME280;20968;42.696;23.360;2022-09-14T11:32:18;95101.22;;;30.10;29.85
34742;BME280;20968;42.696;23.360;2022-09-14T11:37:19;95094.13;;;30.00;26.68
34742;BME280;20968;42.696;23.360;2022-09-14T11:40:00;95083.72;;;29.93;28.88
34742;BME280;20968;42.696;23.360;2022-09-14T11:45:46;95075.63;;;29.89;27.70
34742;BME280;20968;42.696;23.360;2022-09-14T11:48:30;95075.28;;;29.74;28.07
34742;BME280;20968;42.696;23.360;2022-09-14T11:51:11;95076.31;;;29.78;28.59
34742;BME280;20968;42.696;23.360;2022-09-14T11:53:40;95073.34;;;29.76;27.70
34742;BME280;20968;42.696;23.360;2022-09-14T11:56:19;95069.25;;;29.58;26.84
34742;BME280;20968;42.696;23.360;2022-09-14T11:58:49;95090.44;;;29.67;28.33
34742;BME280;20968;42.696;23.360;2022-09-14T12:01:38;95079.13;;;29.57;28.63
34742;BME280;20968;42.696;23.360;2022-09-14T12:04:14;95083.53;;;29.70;28.32
34742;BME280;20968;42.696;23.360;2022-09-14T12:06:43;95082.84;;;29.60;28.70
34742;BME280;20968;42.696;23.360;2022-09-14T12:11:50;95075.72;;;29.80;28.16
34742;BME280;20968;42.696;23.360;2022-09-14T12:19:39;95078.75;;;29.93;27.09
34742;BME280;20968;42.696;23.360;2022-09-14T12:22:31;95076.78;;;29.75;28.20
34742;BME280;20968;42.696;23.360;2022-09-14T12:25:20;95065.69;;;29.79;28.77
34742;BME280;20968;42.696;23.360;2022-09-14T12:27:48;95070.56;;;29.88;29.12
34742;BME280;20968;42.696;23.360;2022-09-14T12:39:25;95064.81;;;29.76;28.22
34742;BME280;20968;42.696;23.360;2022-09-14T12:44:34;95057.22;;;29.69;28.77
34742;BME280;20968;42.696;23.360;2022-09-14T12:49:54;95054.25;;;29.88;28.45
34742;BME280;20968;42.696;23.360;2022-09-14T12:52:35;95055.88;;;29.91;29.02
34742;BME280;20968;42.696;23.360;2022-09-14T12:55:48;95052.28;;;29.91;29.16
34742;BME280;20968;42.696;23.360;2022-09-14T13:03:53;95061.56;;;29.91;29.12
34742;BME280;20968;42.696;23.360;2022-09-14T13:06:20;95054.88;;;29.87;29.10
34742;BME280;20968;42.696;23.360;2022-09-14T13:08:56;95051.53;;;29.69;30.15
34742;BME280;20968;42.696;23.360;2022-09-14T13:12:06;95063.88;;;29.83;30.34
34742;BME280;20968;42.696;23.360;2022-09-14T13:14:22;95057.19;;;30.00;29.93
34742;BME280;20968;42.696;23.360;2022-09-14T13:16:49;95063.97;;;29.95;29.84
34742;BME280;20968;42.696;23.360;2022-09-14T13:19:29;95069.13;;;29.77;29.94
34742;BME280;20968;42.696;23.360;2022-09-14T13:21:57;95061.84;;;29.74;30.44
34742;BME280;20968;42.696;23.360;2022-09-14T13:24:42;95047.84;;;29.88;29.84
34742;BME280;20968;42.696;23.360;2022-09-14T13:29:42;95055.03;;;30.09;30.73
34742;BME280;20968;42.696;23.360;2022-09-14T13:32:15;95060.97;;;29.93;30.79
34742;BME280;20968;42.696;23.360;2022-09-14T13:34:45;95058.41;;;29.97;30.31
34742;BME280;20968;42.696;23.360;2022-09-14T13:37:14;95057.66;;;29.96;30.26
34742;BME280;20968;42.696;23.360;2022-09-14T13:39:48;95045.63;;;30.07;31.15
34742;BME280;20968;42.696;23.360;2022-09-14T13:42:15;95055.75;;;30.10;30.79
34742;BME280;20968;42.696;23.360;2022-09-14T13:44:42;95063.22;;;29.94;31.10
34742;BME280;20968;42.696;23.360;2022-09-14T13:47:13;95047.16;;;29.99;30.48
34742;BME280;20968;42.696;23.360;2022-09-14T13:49:40;95062.69;;;30.07;31.30
34742;BME280;20968;42.696;23.360;2022-09-14T13:54:54;95060.28;;;30.03;31.38
34742;BME280;20968;42.696;23.360;2022-09-14T13:57:31;95056.47;;;29.99;31.40
34742;BME280;20968;42.696;23.360;2022-09-14T14:12:03;95034.13;;;29.84;31.37
34742;BME280;20968;42.696;23.360;2022-09-14T14:14:29;95024.34;;;29.87;31.20
34742;BME280;20968;42.696;23.360;2022-09-14T14:19:53;95014.06;;;30.03;31.92
34742;BME280;20968;42.696;23.360;2022-09-14T14:22:33;95022.13;;;30.06;31.41
34742;BME280;20968;42.696;23.360;2022-09-14T14:25:15;95025.72;;;30.07;31.44
34742;BME280;20968;42.696;23.360;2022-09-14T14:27:46;95027.63;;;29.93;30.94
34742;BME280;20968;42.696;23.360;2022-09-14T14:30:17;95018.81;;;29.89;31.30
34742;BME280;20968;42.696;23.360;2022-09-14T14:32:48;95021.66;;;29.89;32.25
34742;BME280;20968;42.696;23.360;2022-09-14T14:35:18;95017.75;;;29.94;31.55
34742;BME280;20968;42.696;23.360;2022-09-14T14:37:44;95013.47;;;30.04;31.21
34742;BME280;20968;42.696;23.360;2022-09-14T14:40:12;95004.81;;;30.02;30.92
34742;BME280;20968;42.696;23.360;2022-09-14T14:42:38;95007.03;;;30.04;31.74
34742;BME280;20968;42.696;23.360;2022-09-14T14:45:05;95006.09;;;30.11;30.94
34742;BME280;20968;42.696;23.360;2022-09-14T14:47:31;95002.72;;;30.03;31.20
34742;BME280;20968;42.696;23.360;2022-09-14T14:49:58;95009.50;;;29.98;31.81
34742;BME280;20968;42.696;23.360;2022-09-14T14:52:23;95003.81;;;29.98;31.41
34742;BME280;20968;42.696;23.360;2022-09-14T14:54:49;95012.72;;;30.04;31.21
34742;BME280;20968;42.696;23.360;2022-09-14T14:57:14;95003.53;;;29.94;31.82
34742;BME280;20968;42.696;23.360;2022-09-14T14:59:40;95009.97;;;29.95;31.78
34742;BME280;20968;42.696;23.360;2022-09-14T15:02:05;94997.56;;;29.90;31.89
34742;BME280;20968;42.696;23.360;2022-09-14T15:04:31;95000.97;;;29.98;31.94
34742;BME280;20968;42.696;23.360;2022-09-14T15:06:57;94996.63;;;29.97;31.84
34742;BME280;20968;42.696;23.360;2022-09-14T15:09:25;94999.13;;;30.02;31.82
34742;BME280;20968;42.696;23.360;2022-09-14T15:11:52;94990.09;;;29.95;31.50
34742;BME280;20968;42.696;23.360;2022-09-14T15:14:20;94990.72;;;29.84;31.62
34742;BME280;20968;42.696;23.360;2022-09-14T15:16:47;94989.75;;;29.58;32.23
34742;BME280;20968;42.696;23.360;2022-09-14T15:19:13;94990.03;;;29.32;32.01
34742;BME280;20968;42.696;23.360;2022-09-14T15:21:40;94986.84;;;29.17;33.19
34742;BME280;20968;42.696;23.360;2022-09-14T15:24:06;94990.69;;;29.21;32.14
34742;BME280;20968;42.696;23.360;2022-09-14T15:26:32;94982.19;;;29.21;32.94
34742;BME280;20968;42.696;23.360;2022-09-14T15:28:58;94980.81;;;29.22;32.26
34742;BME280;20968;42.696;23.360;2022-09-14T15:31:24;94976.38;;;29.19;32.31
34742;BME280;20968;42.696;23.360;2022-09-14T15:33:50;94978.47;;;29.18;32.82
34742;BME280;20968;42.696;23.360;2022-09-14T15:36:34;94979.53;;;29.14;32.88
34742;BME280;20968;42.696;23.360;2022-09-14T15:39:00;94973.00;;;29.11;32.77
34742;BME280;20968;42.696;23.360;2022-09-14T15:41:25;94977.75;;;29.09;32.48
34742;BME280;20968;42.696;23.360;2022-09-14T15:43:53;94967.34;;;29.02;32.47
34742;BME280;20968;42.696;23.360;2022-09-14T15:46:18;94967.88;;;28.89;33.13
34742;BME280;20968;42.696;23.360;2022-09-14T15:48:45;94965.69;;;28.78;33.32
34742;BME280;20968;42.696;23.360;2022-09-14T15:51:10;94963.75;;;28.71;33.98
34742;BME280;20968;42.696;23.360;2022-09-14T15:53:38;94962.13;;;28.68;32.98
34742;BME280;20968;42.696;23.360;2022-09-14T15:56:11;94967.38;;;28.62;33.33
34742;BME280;20968;42.696;23.360;2022-09-14T15:58:38;94954.56;;;28.51;33.83
34742;BME280;20968;42.696;23.360;2022-09-14T16:01:11;94962.53;;;28.43;34.25
34742;BME280;20968;42.696;23.360;2022-09-14T16:03:37;94953.91;;;28.32;33.55
34742;BME280;20968;42.696;23.360;2022-09-14T16:06:05;94951.22;;;28.25;33.93
34742;BME280;20968;42.696;23.360;2022-09-14T16:08:31;94965.25;;;28.13;34.39
34742;BME280;20968;42.696;23.360;2022-09-14T16:10:57;94959.31;;;28.09;34.40
34742;BME280;20968;42.696;23.360;2022-09-14T16:13:23;94965.84;;;28.02;34.54
34742;BME280;20968;42.696;23.360;2022-09-14T16:15:49;94957.81;;;27.89;34.60
34742;BME280;20968;42.696;23.360;2022-09-14T16:18:14;94963.34;;;27.87;34.44
34742;BME280;20968;42.696;23.360;2022-09-14T16:20:40;94967.53;;;27.86;35.62
34742;BME280;20968;42.696;23.360;2022-09-14T16:23:05;94962.91;;;27.81;35.62
34742;BME280;20968;42.696;23.360;2022-09-14T16:25:36;94963.22;;;27.66;36.06
34742;BME280;20968;42.696;23.360;2022-09-14T16:28:05;94955.31;;;27.56;36.00
34742;BME280;20968;42.696;23.360;2022-09-14T16:30:31;94959.47;;;27.45;36.75
34742;BME280;20968;42.696;23.360;2022-09-14T16:32:56;94960.19;;;27.27;36.81
34742;BME280;20968;42.696;23.360;2022-09-14T16:35:21;94952.72;;;27.22;37.01
34742;BME280;20968;42.696;23.360;2022-09-14T16:37:47;94951.06;;;27.19;37.05
34742;BME280;20968;42.696;23.360;2022-09-14T16:40:12;94960.16;;;27.17;37.60
34742;BME280;20968;42.696;23.360;2022-09-14T16:42:38;94960.59;;;27.14;37.28
34742;BME280;20968;42.696;23.360;2022-09-14T16:45:04;94969.53;;;27.10;37.56
34742;BME280;20968;42.696;23.360;2022-09-14T16:47:29;94956.97;;;26.94;37.63
34742;BME280;20968;42.696;23.360;2022-09-14T16:49:56;94961.56;;;26.90;38.75
34742;BME280;20968;42.696;23.360;2022-09-14T16:52:21;94968.25;;;26.85;38.68
34742;BME280;20968;42.696;23.360;2022-09-14T16:54:47;94957.22;;;26.79;38.93